Time;durP1;ratioP1;P1;durP2;ratioP2;P2;SDS_P1;SDS_P2;PMS_P1;PMS_P2;Temp;Humidity;BMP_temperature;BMP_pressure;BME280_temperature;BME280_humidity;BME280_pressure;Samples;Min_cycle;Max_cycle;Signal;HPM_P1;HPM_P2
2021/06/24 00:01:53;;;;;;;38.87;21.70;;;21.10;99.90;;;;;;4487842;27;656322;-73
2021/06/24 00:04:41;;;;;;;34.27;21.70;;;21.10;99.90;;;;;;4506123;27;657169;-73
2021/06/24 00:07:29;;;;;;;38.23;22.40;;;21.10;99.90;;;;;;4482251;27;655253;-74
2021/06/24 00:10:17;;;;;;;38.83;22.43;;;21.10;99.90;;;;;;4508557;27;655594;-74
2021/06/24 00:13:04;;;;;;;34.67;21.57;;;21.10;99.90;;;;;;4485197;27;655643;-74
2021/06/24 00:15:52;;;;;;;41.13;22.13;;;21.10;99.90;;;;;;4504356;27;656184;-73
2021/06/24 00:18:39;;;;;;;37.67;23.10;;;21.10;99.90;;;;;;4482679;27;656891;-74
2021/06/24 00:21:28;;;;;;;42.07;21.73;;;21.10;99.90;;;;;;4500899;27;655143;-74
2021/06/24 00:24:16;;;;;;;37.67;22.30;;;21.00;99.90;;;;;;4485790;27;656018;-73
2021/06/24 00:27:03;;;;;;;35.17;21.87;;;21.00;99.90;;;;;;4485558;27;655993;-74
2021/06/24 00:29:51;;;;;;;36.77;22.87;;;21.00;99.90;;;;;;4504163;27;656409;-74
2021/06/24 00:32:38;;;;;;;36.37;23.13;;;20.90;99.90;;;;;;4480427;27;655402;-74
2021/06/24 00:35:26;;;;;;;33.40;22.03;;;20.90;99.90;;;;;;4504372;27;656443;-74
2021/06/24 00:38:15;;;;;;;37.75;22.55;;;20.90;99.90;;;;;;4476015;27;655675;-74
2021/06/24 00:41:03;;;;;;;40.00;24.27;;;20.90;99.90;;;;;;4480654;27;655425;-74
2021/06/24 00:43:50;;;;;;;40.23;22.70;;;20.90;99.90;;;;;;4505173;27;657373;-74
2021/06/24 00:46:38;;;;;;;39.57;22.83;;;20.80;99.90;;;;;;4484727;27;656090;-74
2021/06/24 00:49:25;;;;;;;37.20;22.63;;;20.80;99.90;;;;;;4509608;27;656558;-74
2021/06/24 00:52:13;;;;;;;39.37;24.43;;;20.80;99.90;;;;;;4477651;27;655340;-74
2021/06/24 00:55:02;;;;;;;41.03;25.40;;;20.80;99.90;;;;;;4507296;27;656112;-74
2021/06/24 00:57:50;;;;;;;36.60;23.40;;;20.80;99.90;;;;;;4481814;27;656706;-74
2021/06/24 01:00:38;;;;;;;43.63;23.83;;;20.70;99.90;;;;;;4501088;27;656142;-74
2021/06/24 01:03:25;;;;;;;39.27;23.73;;;20.70;99.90;;;;;;4479659;27;656178;-74
2021/06/24 01:06:13;;;;;;;41.53;24.90;;;20.70;99.90;;;;;;4489792;27;655571;-74
2021/06/24 01:09:00;;;;;;;42.40;24.00;;;20.60;99.90;;;;;;4503841;27;656756;-74
2021/06/24 01:11:50;;;;;;;41.00;24.97;;;20.60;99.90;;;;;;4484473;27;655725;-74
2021/06/24 01:14:38;;;;;;;39.47;25.13;;;20.60;99.90;;;;;;4502092;27;655221;-74
2021/06/24 01:17:25;;;;;;;38.80;24.57;;;20.60;99.90;;;;;;4503807;27;656238;-74
2021/06/24 01:20:14;;;;;;;40.70;24.40;;;20.60;99.90;;;;;;4484915;27;655502;-74
2021/06/24 01:23:02;;;;;;;42.50;25.40;;;20.50;99.90;;;;;;4497656;27;656192;-74
2021/06/24 01:25:51;;;;;;;39.37;25.20;;;20.50;99.90;;;;;;4484880;27;655913;-74
2021/06/24 01:28:38;;;;;;;45.50;25.30;;;20.40;99.90;;;;;;4483033;27;656128;-74
2021/06/24 01:31:26;;;;;;;41.53;25.20;;;20.40;99.90;;;;;;4504343;27;655952;-74
2021/06/24 01:34:13;;;;;;;40.50;26.63;;;20.40;99.90;;;;;;4478980;27;655816;-74
2021/06/24 01:37:01;;;;;;;44.13;26.03;;;20.40;99.90;;;;;;4507702;27;656333;-74
2021/06/24 01:39:48;;;;;;;44.97;26.70;;;20.40;99.90;;;;;;4485745;27;655354;-74
2021/06/24 01:42:37;;;;;;;43.07;25.17;;;20.40;99.90;;;;;;4502940;27;656956;-74
2021/06/24 01:45:25;;;;;;;41.40;26.40;;;20.30;99.90;;;;;;4485836;27;656268;-74
2021/06/24 01:48:13;;;;;;;45.93;26.23;;;20.30;99.90;;;;;;4500755;27;655740;-74
2021/06/24 01:51:02;;;;;;;48.00;27.30;;;20.30;99.90;;;;;;4504003;27;655976;-74
2021/06/24 01:53:49;;;;;;;41.50;25.43;;;20.20;99.90;;;;;;4485526;27;656189;-74
2021/06/24 01:56:38;;;;;;;42.63;26.83;;;20.20;99.90;;;;;;4507610;27;655874;-74
2021/06/24 01:59:26;;;;;;;51.10;27.60;;;20.20;99.90;;;;;;4482385;27;657877;-74
2021/06/24 02:02:14;;;;;;;49.93;27.40;;;20.10;99.90;;;;;;4484669;27;657094;-74
2021/06/24 02:05:01;;;;;;;44.53;26.70;;;20.10;99.90;;;;;;4505860;27;657139;-74
2021/06/24 02:07:49;;;;;;;46.77;27.80;;;20.10;99.90;;;;;;4487041;27;656473;-74
2021/06/24 02:10:37;;;;;;;49.50;28.37;;;20.10;99.90;;;;;;4500706;27;657586;-74
2021/06/24 02:13:24;;;;;;;43.53;27.53;;;20.10;99.90;;;;;;4487160;27;657020;-75
2021/06/24 02:16:13;;;;;;;44.40;27.50;;;20.10;99.90;;;;;;4503116;27;657220;-74
2021/06/24 02:19:01;;;;;;;46.63;28.87;;;20.10;99.90;;;;;;4481687;27;657198;-74
2021/06/24 02:21:48;;;;;;;54.20;30.47;;;20.10;99.90;;;;;;4475493;27;657320;-74
2021/06/24 02:24:36;;;;;;;54.07;30.07;;;20.20;99.90;;;;;;4497826;27;657537;-74
2021/06/24 02:27:23;;;;;;;45.23;28.30;;;20.20;99.90;;;;;;4486276;27;656641;-75
2021/06/24 02:30:11;;;;;;;50.43;29.97;;;20.20;99.90;;;;;;4504119;27;656881;-74
2021/06/24 02:33:00;;;;;;;45.07;29.67;;;20.20;99.90;;;;;;4485790;27;656518;-74
2021/06/24 02:35:51;;;;;;;50.50;30.67;;;20.20;99.90;;;;;;4486556;27;656771;-74
2021/06/24 02:38:38;;;;;;;50.47;30.47;;;20.30;99.90;;;;;;4486860;27;656297;-74
2021/06/24 02:41:26;;;;;;;55.97;32.70;;;20.30;99.90;;;;;;4509093;27;657988;-74
2021/06/24 02:44:13;;;;;;;53.50;30.63;;;20.40;99.90;;;;;;4482436;27;656480;-74
2021/06/24 02:47:01;;;;;;;55.80;32.07;;;20.40;99.90;;;;;;4499891;27;657353;-74
2021/06/24 02:49:50;;;;;;;57.70;33.07;;;20.50;99.90;;;;;;4476936;27;657305;-75
2021/06/24 02:52:38;;;;;;;57.40;33.43;;;20.50;99.90;;;;;;4491802;27;656371;-75
2021/06/24 02:55:30;;;;;;;57.37;33.00;;;20.50;99.90;;;;;;4497962;27;657494;-74
2021/06/24 02:58:18;;;;;;;65.33;34.97;;;20.60;99.90;;;;;;4470500;27;656738;-74
2021/06/24 03:01:05;;;;;;;54.87;35.33;;;20.70;99.90;;;;;;4499016;27;657841;-75
2021/06/24 03:03:53;;;;;;;64.10;36.77;;;20.70;99.90;;;;;;4484730;27;656791;-74
2021/06/24 03:06:42;;;;;;;60.43;36.90;;;20.80;99.90;;;;;;4506065;27;656617;-74
2021/06/24 03:09:29;;;;;;;64.37;36.93;;;20.80;99.90;;;;;;4482842;27;657317;-75
2021/06/24 03:12:17;;;;;;;65.53;39.03;;;20.80;99.90;;;;;;4503098;27;655648;-75
2021/06/24 03:15:05;;;;;;;66.27;38.83;;;20.90;99.90;;;;;;4481404;27;657911;-74
2021/06/24 03:17:53;;;;;;;63.17;38.80;;;21.00;99.90;;;;;;4485394;27;656471;-75
2021/06/24 03:20:40;;;;;;;65.30;38.37;;;21.00;99.90;;;;;;4505200;27;658003;-74
2021/06/24 03:23:29;;;;;;;67.93;38.50;;;21.10;99.90;;;;;;4476892;27;657334;-75
2021/06/24 03:26:17;;;;;;;64.13;39.40;;;21.10;99.90;;;;;;4503101;27;656175;-74
2021/06/24 03:29:05;;;;;;;70.03;39.97;;;21.20;99.90;;;;;;4481922;27;657824;-75
2021/06/24 03:31:53;;;;;;;75.63;40.60;;;21.30;99.90;;;;;;4493746;27;657197;-75
2021/06/24 03:34:41;;;;;;;62.70;39.10;;;21.30;99.90;;;;;;4504595;27;658120;-75
2021/06/24 03:37:29;;;;;;;65.50;38.80;;;21.40;99.90;;;;;;4486124;27;657024;-74
2021/06/24 03:40:18;;;;;;;63.50;38.73;;;21.40;99.90;;;;;;4504196;27;657243;-75
2021/06/24 03:43:06;;;;;;;70.33;40.27;;;21.50;99.90;;;;;;4476781;27;658099;-74
2021/06/24 03:45:53;;;;;;;63.37;39.03;;;21.50;99.90;;;;;;4476587;27;656972;-75
2021/06/24 03:48:41;;;;;;;75.47;40.37;;;21.50;99.90;;;;;;4508595;27;657335;-75
2021/06/24 03:51:29;;;;;;;65.53;39.73;;;21.60;99.90;;;;;;4475636;27;656517;-74
2021/06/24 03:54:16;;;;;;;67.03;40.87;;;21.60;99.90;;;;;;4504605;27;657431;-74
2021/06/24 03:57:05;;;;;;;68.37;39.90;;;21.60;99.90;;;;;;4485629;27;656593;-74
2021/06/24 04:00:01;;;;;;;67.80;40.90;;;21.60;99.90;;;;;;4476778;27;656375;-74
2021/06/24 04:02:56;;;;;;;65.17;40.23;;;21.60;99.90;;;;;;4466283;27;656413;-74
2021/06/24 04:05:44;;;;;;;69.13;40.23;;;21.60;99.90;;;;;;4486144;27;656784;-74
2021/06/24 04:08:31;;;;;;;71.93;40.33;;;21.60;99.90;;;;;;4486717;27;656465;-74
2021/06/24 04:11:19;;;;;;;73.43;40.93;;;21.60;99.90;;;;;;4485183;27;656531;-74
2021/06/24 04:14:12;;;;;;;72.63;42.47;;;21.60;99.90;;;;;;4518367;27;656613;-75
2021/06/24 04:17:00;;;;;;;67.50;40.40;;;21.70;99.90;;;;;;4444261;27;657816;-74
2021/06/24 04:19:48;;;;;;;75.00;44.33;;;21.70;99.90;;;;;;4491117;27;657112;-74
2021/06/24 04:22:35;;;;;;;83.30;44.80;;;21.80;99.90;;;;;;4504201;27;657707;-74
2021/06/24 04:25:23;;;;;;;91.20;44.50;;;21.80;99.90;;;;;;4477426;27;656297;-74
2021/06/24 04:28:10;;;;;;;89.07;45.67;;;21.90;99.90;;;;;;4451135;27;658087;-74
2021/06/24 04:30:59;;;;;;;86.07;45.87;;;22.00;99.90;;;;;;4478752;27;657101;-74
2021/06/24 04:33:47;;;;;;;88.77;46.47;;;22.00;99.90;;;;;;4506797;27;656760;-74
2021/06/24 04:36:35;;;;;;;88.30;46.93;;;22.00;99.90;;;;;;4463410;27;657891;-74
2021/06/24 04:39:23;;;;;;;91.63;47.43;;;22.10;99.90;;;;;;4492514;27;657288;-74
2021/06/24 04:42:11;;;;;;;93.67;48.60;;;22.20;99.90;;;;;;4500387;27;658362;-74
2021/06/24 04:44:58;;;;;;;102.53;49.73;;;22.20;99.90;;;;;;4481802;27;656885;-74
2021/06/24 04:47:49;;;;;;;92.63;47.13;;;22.30;99.90;;;;;;4501561;27;658531;-74
2021/06/24 04:50:37;;;;;;;100.60;49.00;;;22.30;99.90;;;;;;4478178;27;657572;-74
2021/06/24 04:53:24;;;;;;;97.53;48.10;;;22.40;99.90;;;;;;4469678;27;657394;-74
2021/06/24 04:56:12;;;;;;;100.87;49.13;;;22.50;99.90;;;;;;4494643;27;657050;-74
2021/06/24 04:58:59;;;;;;;100.10;47.40;;;22.40;99.90;;;;;;4489972;27;657076;-74
2021/06/24 05:01:47;;;;;;;97.67;48.07;;;22.40;99.90;;;;;;4496216;27;657888;-74
2021/06/24 05:04:36;;;;;;;96.83;46.53;;;22.50;99.90;;;;;;4473693;27;657976;-74
2021/06/24 05:07:24;;;;;;;89.80;47.47;;;22.60;99.90;;;;;;4484752;27;656900;-74
2021/06/24 05:10:13;;;;;;;90.73;47.03;;;22.60;99.90;;;;;;4501788;27;656555;-74
2021/06/24 05:13:01;;;;;;;101.17;48.53;;;22.70;99.90;;;;;;4473950;27;657578;-74
2021/06/24 05:15:49;;;;;;;95.13;47.53;;;22.70;99.90;;;;;;4482504;27;657507;-74
2021/06/24 05:18:36;;;;;;;94.40;45.97;;;22.80;99.90;;;;;;4496566;27;656846;-74
2021/06/24 05:21:26;;;;;;;95.30;46.90;;;22.80;99.90;;;;;;4468799;27;656332;-74
2021/06/24 05:24:23;;;;;;;79.47;44.77;;;22.80;99.90;;;;;;4474034;27;657057;-74
2021/06/24 05:27:10;;;;;;;89.13;46.23;;;22.70;99.90;;;;;;4477695;27;657145;-73
2021/06/24 05:30:05;;;;;;;83.13;44.40;;;22.70;99.90;;;;;;4473003;27;656400;-73
2021/06/24 05:32:53;;;;;;;82.63;44.20;;;22.60;99.90;;;;;;4454456;27;656801;-74
2021/06/24 05:35:40;;;;;;;89.53;45.40;;;22.70;99.90;;;;;;4502312;27;657757;-73
2021/06/24 05:38:30;;;;;;;83.73;44.17;;;22.80;99.90;;;;;;4472931;27;656376;-74
2021/06/24 05:41:18;;;;;;;77.53;43.53;;;23.00;99.90;;;;;;4482457;27;656398;-73
2021/06/24 05:44:06;;;;;;;78.73;43.07;;;23.10;99.90;;;;;;4504315;27;656969;-72
2021/06/24 05:46:54;;;;;;;86.07;42.97;;;23.30;99.90;;;;;;4480171;27;656496;-72
2021/06/24 05:49:44;;;;;;;78.97;42.17;;;23.40;99.90;;;;;;4498282;27;657080;-72
2021/06/24 05:52:32;;;;;;;77.87;42.33;;;23.50;99.90;;;;;;4496459;27;656192;-72
2021/06/24 05:55:47;;;;;;;73.23;42.80;;;23.60;99.90;;;;;;4474233;27;657526;-71
2021/06/24 05:58:57;;;;;;;70.90;40.17;;;23.60;99.90;;;;;;4439183;27;657367;-72
2021/06/24 06:08:51;;;;;;;66.68;38.67;;;24.20;99.90;;;;;;4482363;27;656755;-72
2021/06/24 06:11:43;;;;;;;63.55;40.35;;;24.30;99.90;;;;;;4485952;27;656475;-72
2021/06/24 06:14:31;;;;;;;68.43;38.67;;;24.30;99.90;;;;;;4494645;27;657005;-72
2021/06/24 06:17:19;;;;;;;65.97;37.50;;;24.40;99.90;;;;;;4464880;27;656826;-72
2021/06/24 06:20:09;;;;;;;63.20;37.63;;;24.60;99.90;;;;;;4490634;27;657199;-72
2021/06/24 06:22:57;;;;;;;61.85;37.28;;;24.80;99.90;;;;;;4458398;27;656639;-73
2021/06/24 06:28:47;;;;;;;67.53;38.10;;;25.10;99.90;;;;;;4445688;27;656998;-70
2021/06/24 06:31:38;;;;;;;58.33;37.45;;;25.20;99.90;;;;;;4461264;27;657548;-70
2021/06/24 06:34:26;;;;;;;61.63;39.17;;;25.20;99.90;;;;;;4476525;27;657290;-70
2021/06/24 06:37:14;;;;;;;68.25;38.88;;;25.00;99.90;;;;;;4467471;27;656748;-71
2021/06/24 06:40:02;;;;;;;65.65;39.20;;;24.80;99.90;;;;;;4492629;27;656399;-71
2021/06/24 06:42:50;;;;;;;59.05;39.08;;;24.70;99.90;;;;;;4476064;27;656965;-71
2021/06/24 06:45:39;;;;;;;62.28;38.35;;;24.80;99.90;;;;;;4500590;27;657397;-72
2021/06/24 06:48:27;;;;;;;59.70;37.95;;;24.90;99.90;;;;;;4503650;27;656906;-71
2021/06/24 06:54:16;;;;;;;69.30;38.83;;;25.10;99.90;;;;;;4479623;27;656479;-72
2021/06/24 06:57:05;;;;;;;66.68;39.08;;;25.10;99.90;;;;;;4474778;27;656652;-71
2021/06/24 06:59:53;;;;;;;62.50;38.70;;;25.10;99.90;;;;;;4471416;27;656612;-72
2021/06/24 07:02:43;;;;;;;61.20;37.15;;;25.30;99.90;;;;;;4480054;27;656654;-72
2021/06/24 07:05:30;;;;;;;61.00;39.10;;;25.40;99.90;;;;;;4476757;27;657252;-71
2021/06/24 07:08:21;;;;;;;58.67;37.17;;;25.60;99.90;;;;;;4503467;27;656518;-71
2021/06/24 07:11:09;;;;;;;61.47;37.60;;;25.70;99.90;;;;;;4466371;27;657316;-71
2021/06/24 07:13:57;;;;;;;53.08;33.75;;;25.80;99.90;;;;;;4502269;27;656539;-70
2021/06/24 07:16:45;;;;;;;56.35;35.50;;;25.80;99.90;;;;;;4492285;27;657765;-71
2021/06/24 07:19:39;;;;;;;58.35;34.55;;;26.00;99.90;;;;;;4500739;27;657862;-72
2021/06/24 07:22:27;;;;;;;49.47;32.50;;;26.20;99.90;;;;;;4474561;27;657040;-71
2021/06/24 07:25:22;;;;;;;53.17;33.38;;;26.40;99.90;;;;;;4480801;27;657542;-71
2021/06/24 07:28:10;;;;;;;61.28;33.88;;;26.50;99.90;;;;;;4481090;27;656985;-72
2021/06/24 07:31:00;;;;;;;58.53;34.15;;;26.60;99.90;;;;;;4491450;27;657155;-71
2021/06/24 07:33:48;;;;;;;50.78;32.92;;;26.70;99.90;;;;;;4451041;27;656715;-72
2021/06/24 07:36:45;;;;;;;57.50;31.90;;;26.80;99.90;;;;;;4505844;27;657261;-70
2021/06/24 07:39:33;;;;;;;50.80;32.53;;;26.90;99.90;;;;;;4463496;27;656662;-71
2021/06/24 07:42:21;;;;;;;48.03;31.13;;;27.00;99.90;;;;;;4506776;27;656775;-72
2021/06/24 07:45:09;;;;;;;56.42;33.17;;;27.00;99.90;;;;;;4485396;27;656554;-72
2021/06/24 07:47:57;;;;;;;50.58;33.22;;;27.20;99.90;;;;;;4491239;27;656463;-72
2021/06/24 07:50:45;;;;;;;52.08;31.95;;;27.40;99.90;;;;;;4481348;27;657653;-71
2021/06/24 07:53:34;;;;;;;50.97;31.50;;;27.40;99.90;;;;;;4503976;27;656206;-72
2021/06/24 07:56:21;;;;;;;52.35;33.55;;;27.50;99.90;;;;;;4481176;27;657142;-71
2021/06/24 07:59:16;;;;;;;55.83;33.20;;;27.80;99.90;;;;;;4499778;27;656895;-71
2021/06/24 08:02:05;;;;;;;54.13;34.55;;;27.90;99.90;;;;;;4431232;27;656322;-71
2021/06/24 08:04:53;;;;;;;50.80;31.63;;;28.00;99.90;;;;;;4454913;27;656445;-72
2021/06/24 08:07:44;;;;;;;62.55;34.38;;;28.30;99.90;;;;;;4490634;27;656637;-72
2021/06/24 08:10:35;;;;;;;62.30;32.38;;;28.70;99.90;;;;;;4468079;27;656508;-72
2021/06/24 08:13:23;;;;;;;52.83;33.72;;;28.90;99.90;;;;;;4475586;27;656501;-72
2021/06/24 08:16:11;;;;;;;46.72;30.70;;;29.00;99.90;;;;;;4504259;27;657062;-72
2021/06/24 08:18:58;;;;;;;47.88;32.10;;;29.30;99.90;;;;;;4504430;27;656651;-72
2021/06/24 08:21:46;;;;;;;46.13;30.17;;;29.20;99.90;;;;;;4478574;27;658179;-72
2021/06/24 08:24:35;;;;;;;48.90;32.90;;;29.10;99.90;;;;;;4469617;27;656936;-71
2021/06/24 08:27:34;;;;;;;49.65;31.92;;;29.10;99.90;;;;;;4490787;27;656611;-72
2021/06/24 08:30:25;;;;;;;47.78;31.67;;;29.20;99.90;;;;;;4483795;27;656243;-72
2021/06/24 08:33:28;;;;;;;44.58;30.70;;;29.40;99.90;;;;;;4481141;27;656683;-71
2021/06/24 08:36:18;;;;;;;49.75;29.15;;;29.60;99.90;;;;;;4481312;27;657819;-71
2021/06/24 08:39:06;;;;;;;48.85;30.80;;;29.90;99.90;;;;;;4472720;27;656456;-71
2021/06/24 08:41:53;;;;;;;44.45;29.65;;;30.20;99.90;;;;;;4484461;27;656837;-72
2021/06/24 08:44:44;;;;;;;43.55;29.00;;;30.20;99.90;;;;;;4490743;27;657458;-71
2021/06/24 08:47:32;;;;;;;43.17;27.65;;;30.40;99.90;;;;;;4441374;27;657775;-71
2021/06/24 08:50:21;;;;;;;52.38;27.77;;;30.30;99.90;;;;;;4462350;27;656520;-71
2021/06/24 08:53:09;;;;;;;40.63;26.70;;;30.50;99.90;;;;;;4504438;27;656545;-71
2021/06/24 08:55:57;;;;;;;41.92;26.10;;;30.80;99.90;;;;;;4467765;27;656474;-71
2021/06/24 08:58:46;;;;;;;36.40;25.88;;;31.10;99.90;;;;;;4482353;27;657995;-71
2021/06/24 09:01:57;;;;;;;35.85;25.25;;;31.40;99.90;;;;;;4476089;27;657061;-71
2021/06/24 09:04:46;;;;;;;37.43;26.23;;;31.80;99.90;;;;;;4458722;27;656873;-71
2021/06/24 09:07:53;;;;;;;35.75;25.90;;;31.90;99.90;;;;;;4491124;27;656851;-71
2021/06/24 09:10:41;;;;;;;35.13;25.88;;;32.10;99.90;;;;;;4460947;27;656544;-71
2021/06/24 09:13:29;;;;;;;39.05;25.50;;;32.30;99.90;;;;;;4463492;27;656566;-71
2021/06/24 09:16:24;;;;;;;40.75;24.58;;;32.50;99.90;;;;;;4477810;28;656807;-71
2021/06/24 09:19:24;;;;;;;34.75;24.85;;;32.60;99.90;;;;;;4418960;28;656073;-71
2021/06/24 09:22:12;;;;;;;35.85;24.95;;;33.00;99.90;;;;;;4431775;28;656555;-71
2021/06/24 09:25:08;;;;;;;39.07;24.20;;;33.30;99.90;;;;;;4463910;28;657728;-72
2021/06/24 09:27:56;;;;;;;31.27;22.52;;;33.10;99.90;;;;;;4414479;28;656770;-72
2021/06/24 09:30:45;;;;;;;36.47;22.50;;;33.30;99.90;;;;;;4467869;28;656689;-71
2021/06/24 09:33:39;;;;;;;32.47;21.77;;;33.20;99.90;;;;;;4413179;28;656150;-72
2021/06/24 09:36:35;;;;;;;30.90;23.27;;;33.00;99.90;;;;;;4488208;28;657128;-72
2021/06/24 09:39:36;;;;;;;39.55;23.25;;;33.20;99.90;;;;;;4464501;28;656612;-72
2021/06/24 09:42:23;;;;;;;35.87;23.40;;;33.70;99.90;;;;;;4462545;28;656975;-72
2021/06/24 09:45:16;;;;;;;34.53;22.45;;;33.70;99.90;;;;;;4505068;28;657648;-71
2021/06/24 09:48:14;;;;;;;33.08;21.80;;;33.80;99.90;;;;;;4426107;28;657430;-72
2021/06/24 09:51:15;;;;;;;41.97;22.50;;;33.70;99.90;;;;;;4461071;28;657595;-72
2021/06/24 09:54:05;;;;;;;35.70;21.50;;;34.10;99.90;;;;;;4481356;28;656752;-72
2021/06/24 09:56:55;;;;;;;25.92;19.75;;;34.20;99.90;;;;;;4462213;28;656721;-72
2021/06/24 09:59:43;;;;;;;29.35;19.85;;;34.30;99.90;;;;;;4483207;28;656884;-70
2021/06/24 10:02:30;;;;;;;32.07;21.00;;;34.30;99.90;;;;;;4444444;28;657112;-71
2021/06/24 10:05:18;;;;;;;33.33;20.42;;;34.30;99.90;;;;;;4448745;28;657048;-71
2021/06/24 10:08:13;;;;;;;33.95;20.90;;;34.60;99.90;;;;;;4467317;28;656746;-71
2021/06/24 10:11:02;;;;;;;32.42;21.48;;;34.60;99.90;;;;;;4450235;28;657251;-71
2021/06/24 10:13:50;;;;;;;30.73;20.90;;;34.70;99.90;;;;;;4471627;28;656685;-70
2021/06/24 10:16:38;;;;;;;30.00;20.50;;;34.50;99.90;;;;;;4477315;28;656515;-72
2021/06/24 10:19:26;;;;;;;35.83;21.02;;;34.60;99.90;;;;;;4472628;28;656092;-72
2021/06/24 10:22:16;;;;;;;36.58;20.63;;;34.50;99.90;;;;;;4467388;27;656505;-71
2021/06/24 10:25:05;;;;;;;35.87;22.00;;;34.60;99.90;;;;;;4501718;27;657863;-72
2021/06/24 10:27:56;;;;;;;32.30;21.02;;;34.60;99.90;;;;;;4502149;27;656456;-72
2021/06/24 10:30:43;;;;;;;32.22;22.00;;;34.00;99.90;;;;;;4486478;27;656565;-73
2021/06/24 10:33:31;;;;;;;31.40;22.20;;;33.70;99.90;;;;;;4506220;27;656916;-72
2021/06/24 10:36:19;;;;;;;31.30;21.88;;;33.60;99.90;;;;;;4472784;27;656520;-72
2021/06/24 10:39:07;;;;;;;37.00;22.27;;;33.80;99.90;;;;;;4505601;27;657077;-72
2021/06/24 10:42:05;;;;;;;30.20;20.80;;;33.90;99.90;;;;;;4482577;27;657442;-72
2021/06/24 10:45:01;;;;;;;33.90;21.33;;;34.40;99.90;;;;;;4463765;27;656346;-73
2021/06/24 10:47:49;;;;;;;32.28;20.40;;;34.60;99.90;;;;;;4463459;27;657210;-72
2021/06/24 10:50:43;;;;;;;28.58;20.80;;;34.70;99.90;;;;;;4505326;27;656682;-72
2021/06/24 11:00:44;;;;;;;31.48;20.85;;;34.60;99.90;;;;;;4473211;27;657136;-72
2021/06/24 11:04:05;;;;;;;34.35;21.10;;;34.60;99.90;;;;;;4465404;27;656561;-72
2021/06/24 11:06:54;;;;;;;35.13;21.15;;;34.60;99.90;;;;;;4460056;27;656713;-73
2021/06/24 11:09:41;;;;;;;34.58;20.70;;;35.30;99.90;;;;;;4503325;27;657549;-72
2021/06/24 11:12:51;;;;;;;31.30;20.60;;;35.00;99.90;;;;;;4485042;27;656736;-72
2021/06/24 11:15:58;;;;;;;35.80;19.75;;;34.70;99.90;;;;;;4466736;27;656551;-72
2021/06/24 11:18:51;;;;;;;36.75;20.95;;;35.00;99.90;;;;;;4463661;27;657556;-72
2021/06/24 11:21:55;;;;;;;35.45;20.23;;;35.40;99.90;;;;;;4454134;27;656750;-72
2021/06/24 11:24:43;;;;;;;34.40;21.25;;;35.30;99.90;;;;;;4481712;27;656470;-72
2021/06/24 11:27:32;;;;;;;28.95;19.98;;;35.40;99.90;;;;;;4486858;27;656794;-71
2021/06/24 11:30:46;;;;;;;32.13;19.77;;;35.60;99.90;;;;;;4467727;27;657447;-71
2021/06/24 11:33:42;;;;;;;32.28;19.73;;;35.70;99.90;;;;;;4439113;27;658018;-72
2021/06/24 11:36:30;;;;;;;34.15;20.23;;;35.70;99.90;;;;;;4439289;27;656820;-71
2021/06/24 11:39:23;;;;;;;29.95;18.70;;;35.80;99.90;;;;;;4482441;27;657177;-73
2021/06/24 11:42:11;;;;;;;34.83;19.77;;;35.20;99.90;;;;;;4462431;27;657287;-72
2021/06/24 11:44:59;;;;;;;31.52;19.30;;;35.20;99.90;;;;;;4467497;27;656755;-72
2021/06/24 11:47:47;;;;;;;29.73;18.48;;;35.50;99.90;;;;;;4486328;27;656806;-72
2021/06/24 12:06:01;;;;;;;26.52;16.80;;;37.40;92.50;;;;;;4454493;27;656830;-73
2021/06/24 12:08:58;;;;;;;24.30;15.90;;;37.20;92.50;;;;;;4475599;27;656254;-73
2021/06/24 12:11:45;;;;;;;26.75;16.65;;;37.00;92.10;;;;;;4462226;27;656452;-72
2021/06/24 12:14:34;;;;;;;23.85;15.30;;;36.80;92.50;;;;;;4466770;27;656568;-72
2021/06/24 12:17:23;;;;;;;25.13;15.98;;;36.90;91.10;;;;;;4504919;27;656630;-72
2021/06/24 12:20:12;;;;;;;21.60;15.80;;;36.90;91.90;;;;;;4481325;27;657273;-72
2021/06/24 12:23:02;;;;;;;26.05;15.32;;;37.00;91.70;;;;;;4481903;27;657410;-72
2021/06/24 12:25:49;;;;;;;22.90;15.80;;;37.40;90.50;;;;;;4481783;27;657694;-72
2021/06/24 12:28:37;;;;;;;29.50;14.63;;;37.30;88.50;;;;;;4504888;27;656769;-72
2021/06/24 12:31:25;;;;;;;26.13;15.52;;;37.70;85.40;;;;;;4469553;27;657327;-72
2021/06/24 12:34:22;;;;;;;31.92;14.73;;;37.60;84.70;;;;;;4504675;27;656316;-72
2021/06/24 12:37:09;;;;;;;26.40;14.73;;;38.00;82.40;;;;;;4476400;27;656869;-72
2021/06/24 12:39:58;;;;;;;21.83;12.35;;;37.60;83.80;;;;;;4511661;27;656768;-72
2021/06/24 12:42:47;;;;;;;23.42;13.27;;;37.30;78.90;;;;;;4481566;27;657346;-72
2021/06/24 12:45:46;;;;;;;28.33;13.82;;;37.20;80.40;;;;;;4481019;27;657641;-72
2021/06/24 12:48:35;;;;;;;20.98;14.43;;;36.90;79.30;;;;;;4446818;27;657379;-72
2021/06/24 12:51:23;;;;;;;27.25;14.32;;;36.40;81.70;;;;;;4527437;27;656030;-71
2021/06/24 12:54:15;;;;;;;28.07;14.00;;;36.40;81.00;;;;;;4481684;27;657515;-72
2021/06/24 12:57:05;;;;;;;27.00;14.27;;;36.70;81.00;;;;;;4476487;27;656517;-72
2021/06/24 12:59:53;;;;;;;27.25;13.35;;;37.00;80.50;;;;;;4512245;27;656866;-73
2021/06/24 13:02:51;;;;;;;21.02;13.30;;;36.90;78.90;;;;;;4485764;27;657826;-71
2021/06/24 13:05:39;;;;;;;23.38;13.55;;;37.00;80.90;;;;;;4442114;27;657108;-71
2021/06/24 13:08:26;;;;;;;26.70;12.02;;;36.60;78.20;;;;;;4502690;27;656416;-71
2021/06/24 13:11:16;;;;;;;25.60;12.50;;;36.10;78.30;;;;;;4483681;27;656488;-71
2021/06/24 13:14:07;;;;;;;26.13;13.82;;;36.00;76.60;;;;;;4496956;27;656348;-71
2021/06/24 13:16:57;;;;;;;23.20;13.55;;;36.10;80.60;;;;;;4463059;28;657769;-70
2021/06/24 13:19:52;;;;;;;25.05;13.35;;;35.80;79.40;;;;;;4456119;28;657679;-71
2021/06/24 13:22:39;;;;;;;24.25;13.48;;;35.90;79.40;;;;;;4462414;28;656745;-71
2021/06/24 13:25:27;;;;;;;23.53;13.27;;;36.30;82.60;;;;;;4485866;28;656549;-71
2021/06/24 13:28:15;;;;;;;33.58;13.65;;;36.40;80.60;;;;;;4467224;28;657483;-71
2021/06/24 13:31:05;;;;;;;22.45;12.68;;;36.70;80.20;;;;;;4469606;28;656637;-72
2021/06/24 13:33:57;;;;;;;30.20;14.55;;;37.10;76.60;;;;;;4484782;28;656227;-72
2021/06/24 13:36:45;;;;;;;30.02;12.35;;;37.30;76.60;;;;;;4467126;28;657319;-71
2021/06/24 13:39:34;;;;;;;30.08;12.00;;;37.80;75.00;;;;;;4467747;28;656816;-72
2021/06/24 13:42:21;;;;;;;22.45;12.10;;;37.70;74.20;;;;;;4485325;28;656128;-71
2021/06/24 13:45:18;;;;;;;25.60;13.30;;;37.80;75.20;;;;;;4463085;28;656921;-71
2021/06/24 13:48:08;;;;;;;29.23;11.93;;;37.90;72.70;;;;;;4462862;28;657299;-71
2021/06/24 13:51:24;;;;;;;27.43;13.03;;;38.10;72.80;;;;;;4462780;28;657366;-71
2021/06/24 13:54:13;;;;;;;27.35;11.90;;;38.00;69.70;;;;;;4451537;28;656962;-72
2021/06/24 13:57:03;;;;;;;19.45;11.27;;;37.70;71.20;;;;;;4485013;27;657466;-71
2021/06/24 13:59:50;;;;;;;19.50;11.35;;;37.70;71.60;;;;;;4463262;27;657583;-71
2021/06/24 14:02:38;;;;;;;25.38;12.30;;;37.90;68.80;;;;;;4452118;28;656968;-72
2021/06/24 14:05:27;;;;;;;25.25;12.40;;;37.60;69.60;;;;;;4475244;27;657073;-70
2021/06/24 14:08:15;;;;;;;21.92;11.80;;;37.30;71.00;;;;;;4460794;27;657729;-70
2021/06/24 14:11:03;;;;;;;33.30;12.63;;;37.00;71.60;;;;;;4470929;28;656264;-71
2021/06/24 14:13:51;;;;;;;28.02;12.00;;;36.50;72.90;;;;;;4477854;27;657933;-70
2021/06/24 14:16:38;;;;;;;25.38;12.80;;;36.40;76.60;;;;;;4468426;27;656458;-72
2021/06/24 14:19:28;;;;;;;19.90;11.55;;;36.00;72.20;;;;;;4490387;27;657395;-71
2021/06/24 14:22:17;;;;;;;28.52;12.15;;;35.50;74.20;;;;;;4464885;27;657861;-71
2021/06/24 14:25:06;;;;;;;28.33;12.63;;;35.50;76.20;;;;;;4464727;27;656924;-71
2021/06/24 14:27:53;;;;;;;25.77;12.90;;;35.20;75.60;;;;;;4468104;27;656524;-76
2021/06/24 14:30:41;;;;;;;29.50;12.63;;;34.90;76.70;;;;;;4487772;27;658071;-76
2021/06/24 14:33:29;;;;;;;23.58;12.98;;;35.10;82.50;;;;;;4468720;27;656951;-76
2021/06/24 14:36:17;;;;;;;28.63;12.93;;;35.50;82.40;;;;;;4487174;27;656678;-76
2021/06/24 14:39:07;;;;;;;27.23;12.02;;;35.60;78.00;;;;;;4464143;27;657038;-76
2021/06/24 14:41:55;;;;;;;28.75;13.38;;;35.50;76.50;;;;;;4467161;27;657029;-77
2021/06/24 14:44:43;;;;;;;23.60;12.73;;;35.40;78.10;;;;;;4476195;27;657466;-76
2021/06/24 14:47:31;;;;;;;24.27;13.25;;;35.40;80.90;;;;;;4490147;27;657615;-76